• Join FlightAware (Why Join?)
  • Login
  • US Flag 
 
02:30AM EST


 

Airport Tracker/Info


-or-


 

Live Flight TrackerFlight Track Log ✈ N966QS ✈ 05-May-2013 ✈ KTEB - KAGS

Flight Track Log - Related Links

Times and Time Zones

All times are in EDT time to prevent confusion due to time zone crossing. See the N966QS flight status page for this flight to view local times or setup timezone preferences in your user account.

Time Position Orientation Groundspeed Altitude Reporting Facility
EDT Latitude Longitude Course Direction KTS MPH feet Rate Location/Type
01:22PM 40.9000 -74.1500 270° West 272 313 5,000  Level New York TRACON
01:23PM 40.9000 -74.2500 270° West 285 328 6,800 2,220 Climbing New York TRACON
01:25PM 40.8492 -74.4142 248° West 299 344 11,000 2,280 Climbing New York Center
01:26PM 40.6100 -74.8269 252° West  Level FlightAware Approximate
01:26PM 40.7956 -74.5292 238° Southwest 348 400 12,900  Level New York Center
01:27PM 40.7461 -74.6386 239° Southwest 384 442 14,500 1,920 Climbing New York Center
01:28PM 40.6814 -74.7719 237° Southwest 402 463 16,700 1,860 Climbing New York Center
01:29PM 40.6272 -74.8889 239° Southwest 402 463 18,200 1,620 Climbing New York Center
01:30PM 40.5664 -75.0164 238° Southwest 407 468 20,000 1,860 Climbing New York Center
01:31PM 40.4911 -75.1400 231° Southwest 424 488 22,000 1,980 Climbing New York Center
01:32PM 40.4133 -75.2661 231° Southwest 439 505 24,000 1,860 Climbing New York Center
01:33PM 40.3294 -75.3939 229° Southwest 461 531 25,700 1,620 Climbing New York Center
01:34PM 40.2467 -75.5300 231° Southwest 472 543 27,300 1,560 Climbing New York Center
01:35PM 40.1614 -75.6789 233° Southwest 496 571 28,900 1,560 Climbing New York Center
01:36PM 40.0642 -75.8103 226° Southwest 509 586 30,500 1,560 Climbing New York Center
01:37PM 39.9608 -75.9328 222° Southwest 509 586 32,100 1,620 Climbing New York Center
01:38PM 39.8553 -76.0603 223° Southwest 520 598 33,700 1,140 Climbing New York Center
01:40PM 39.6072 -76.3431 221° Southwest 516 594 36,000 660 Climbing Washington Center
01:41PM 39.5042 -76.4656 223° Southwest 516 594 36,000  Level Washington Center
01:42PM 39.3844 -76.6011 221° Southwest 516 594 36,000  Level Washington Center
01:43PM 39.2811 -76.7203 222° Southwest 511 588 36,000  Level Washington Center
01:44PM 39.1800 -76.8367 222° Southwest 511 588 36,000  Level Washington Center
01:45PM 39.0767 -76.9581 222° Southwest 505 581 36,000  Level Washington Center
01:46PM 38.9731 -77.0761 222° Southwest 505 581 36,000  Level Washington Center
01:47PM 38.8694 -77.1942 222° Southwest 505 581 36,000  Level Washington Center
01:48PM 38.7636 -77.3142 221° Southwest 505 581 36,000  Level Washington Center
01:49PM 38.6575 -77.4339 221° Southwest 505 581 36,000  Level Washington Center
01:50PM 38.5661 -77.5406 222° Southwest 505 581 36,000  Level Washington Center
01:51PM 38.4600 -77.6572 221° Southwest 505 581 36,000  Level Washington Center
01:52PM 38.3558 -77.7733 221° Southwest 499 574 36,000  Level Washington Center
01:53PM 38.2533 -77.8894 222° Southwest 499 574 36,000  Level Washington Center
01:54PM 38.1511 -78.0050 222° Southwest 499 574 36,000  Level Washington Center
01:55PM 38.0508 -78.1178 222° Southwest 499 574 36,000  Level Washington Center
01:56PM 37.9356 -78.2325 218° Southwest 493 567 36,000  Level Washington Center
01:57PM 37.8269 -78.3367 217° Southwest 493 567 36,000  Level Washington Center
01:58PM 37.7203 -78.4350 216° Southwest 493 567 36,000  Level Washington Center
01:59PM 37.6222 -78.5283 217° Southwest 488 562 36,000  Level Washington Center
02:00PM 37.5153 -78.6292 217° Southwest 493 567 36,000  Level Washington Center
02:01PM 37.4064 -78.7292 216° Southwest 493 567 36,000  Level Washington Center
02:02PM 37.2972 -78.8292 216° Southwest 493 567 36,000  Level Washington Center
02:03PM 37.1861 -78.9314 216° Southwest 493 567 36,000  Level Washington Center
02:04PM 37.0681 -79.0433 217° Southwest 493 567 36,000  Level Washington Center
02:05PM 36.9608 -79.1425 216° Southwest 493 567 36,000  Level Washington Center
02:06PM 36.8536 -79.2414 216° Southwest 493 567 36,000  Level Washington Center
02:07PM 36.7461 -79.3428 217° Southwest 493 567 36,000  Level Washington Center
02:08PM 36.6367 -79.4383 215° Southwest 493 567 36,000  Level Washington Center
02:09PM 36.5419 -79.5294 218° Southwest 493 567 36,000  Level Washington Center
02:11PM 36.2900 -79.7525 216° Southwest 464 534 36,000  Level Atlanta Center
02:12PM 36.1847 -79.8456 216° Southwest 464 534 36,000  Level Atlanta Center
02:13PM 36.0817 -79.9408 217° Southwest 464 534 36,000  Level Atlanta Center
02:14PM 35.9653 -80.0161 208° Southwest 464 534 36,000 -480 Level Atlanta Center
02:15PM 35.8339 -80.0789 201° Southwest 458 527 35,100 -600 Descending Atlanta Center
02:16PM 35.7125 -80.1383 202° Southwest 472 543 34,900 -780 Descending Atlanta Center
02:17PM 35.5936 -80.2028 204° Southwest 472 543 33,600 -1,500 Descending Atlanta Center
02:18PM 35.4725 -80.2647 203° Southwest 467 537 32,000 -1,620 Descending Atlanta Center
02:19PM 35.3539 -80.3414 208° Southwest 467 537 30,400 -1,680 Descending Atlanta Center
02:20PM 35.2439 -80.4328 214° Southwest 481 554 28,700 -1,680 Descending Atlanta Center
02:21PM 35.1422 -80.5236 216° Southwest 476 548 27,100 -1,620 Descending Atlanta Center
02:23PM 34.9442 -80.7147 218° Southwest 444 511 23,800 -1,620 Descending Jacksonville Center
02:24PM 34.8964 -80.8500 247° West 428 493 22,100 -1,680 Descending Jacksonville Center
02:25PM 34.8231 -80.9606 231° Southwest 426 490 20,500 -1,080 Descending Jacksonville Center
02:26PM 34.7281 -81.0283 210° Southwest 407 468 20,000 -300 Descending Jacksonville Center
02:27PM 34.6331 -81.0936 209° Southwest 397 457 20,000  Level Jacksonville Center
02:28PM 34.5422 -81.1583 210° Southwest 387 445 20,000  Level Jacksonville Center
02:29PM 34.4492 -81.2231 210° Southwest 387 445 20,000  Level Jacksonville Center
02:30PM 34.3664 -81.2775 209° Southwest 387 445 20,000 -900 Level Jacksonville Center
02:31PM 34.2653 -81.3550 212° Southwest 398 458 18,300 -1,800 Descending Jacksonville Center
02:32PM 34.1722 -81.4192 210° Southwest 398 458 16,500 -1,800 Descending Jacksonville Center
02:33PM 34.0747 -81.4836 209° Southwest 398 458 14,700 -1,800 Descending Jacksonville Center
02:34PM 33.9897 -81.5425 210° Southwest 384 442 12,900 -1,800 Descending Jacksonville Center
02:36PM 33.8655 -81.6107 207° Southwest  Level FlightAware Approximate
02:43PM 33.3667 -81.9500 203° Southwest  Level FlightAware Approximate
02:44PM 33.3699 -81.9645 203° Southwest  Level Estimated
02:45PM 33.3699 -81.9645 203° Southwest  Level Estimated
02:46PM 33.3699 -81.9645 203° Southwest  Level Estimated
02:47PM 33.3699 -81.9645 203° Southwest  Level Estimated
02:48PM 33.3699 -81.9645 203° Southwest  Level Estimated
02:49PM 33.3699 -81.9645 203° Southwest  Level Estimated
02:50PM 33.3699 -81.9645 203° Southwest  Level Estimated